Spirit of New Zealand — ZMSV — position and weather

sailwx.info

Track history (hours):
 
Tides and Currents Weather Stations Pressure Air Temp Water Temp Dewpoint Dewpoint Depression Visibility Wind Speed Wind Dir Waves Ship Positions

Spirit of New Zealand

Last reported at 2019-Sep-18 20:42 UTC. Time now 2019-Sep-21 05:15 UTC.
Position S 36°44' E 175°14'.

Length 37 m; draft 4.1 m.

Type: Passenger vessel. MMSI: 512201000.

Date/timePositionNaut miles runAvg speedWind from/ knotsBaromVisibWave heightAir tempDewpointWater temp
2019-Sep-18 20:42S 36°44' E 175°14'10 1.0
2019-Sep-18 10:36S 36°52' E 175°06'1 8.6
2019-Sep-18 10:30S 36°51' E 175°05'4 8.5
2019-Sep-18 09:59S 36°50' E 174°60'4 8.5
2019-Sep-18 09:30S 36°49' E 174°55'3 6.1
2019-Sep-18 09:00S 36°49' E 174°51'3 6.2
2019-Sep-18 08:30S 36°50' E 174°48'1 0.2
2019-Sep-17 23:56S 36°51' E 174°46'1 2.9
2019-Sep-17 23:30S 36°50' E 174°47'2 4.5
2019-Sep-17 23:00S 36°49' E 174°50'0 0.6
2019-Sep-17 22:11S 36°49' E 174°50'1 7.9
2019-Sep-17 22:00S 36°50' E 174°48'2 3.3
2019-Sep-17 21:22S 36°50' E 174°45'1 0.2
2019-Sep-17 18:55S 36°51' E 174°46'0 0.0
2019-Sep-17 18:16S 36°51' E 174°46'0 0.0
2019-Sep-17 17:58S 36°51' E 174°46'0 0.0
2019-Sep-17 12:04S 36°51' E 174°46'0 0.0
2019-Sep-17 11:40S 36°51' E 174°46'0 0.0
2019-Sep-17 11:04S 36°51' E 174°46'0 0.0
2019-Sep-17 10:55S 36°51' E 174°46'0 0.0
2019-Sep-17 10:28S 36°51' E 174°46'0 0.0
2019-Sep-16 23:54S 36°50' E 174°46'1 1.4
2019-Sep-16 23:30S 36°50' E 174°46'1 2.4
2019-Sep-16 23:00S 36°50' E 174°47'1 1.3
2019-Sep-16 22:30S 36°51' E 174°48'3 5.3
2019-Sep-16 22:00S 36°50' E 174°45'1 0.3
2019-Sep-16 18:52S 36°50' E 174°46'1 1.2
2019-Sep-16 18:22S 36°50' E 174°46'0 0.6
2019-Sep-16 17:59S 36°50' E 174°46'0 0.1
2019-Sep-16 17:29S 36°50' E 174°46'0 0.1
2019-Sep-16 16:59S 36°50' E 174°46'0 0.0
2019-Sep-16 16:29S 36°50' E 174°46'0 0.0
2019-Sep-16 15:59S 36°50' E 174°46'0 0.0
2019-Sep-16 15:29S 36°50' E 174°46'0 0.0
2019-Sep-16 14:50S 36°50' E 174°46'0 0.0
2019-Sep-16 14:29S 36°50' E 174°46'0 0.0
2019-Sep-16 13:59S 36°50' E 174°46'0 0.0
2019-Sep-16 13:20S 36°50' E 174°46'0 0.0
2019-Sep-16 12:56S 36°50' E 174°46'0 0.0
2019-Sep-16 12:20S 36°50' E 174°46'0 0.0
2019-Sep-16 11:56S 36°50' E 174°46'0 0.0
2019-Sep-16 11:26S 36°50' E 174°46'0 0.0
2019-Sep-16 10:59S 36°50' E 174°46'0 0.1
2019-Sep-16 10:29S 36°50' E 174°46'0 0.0
2019-Sep-16 09:59S 36°50' E 174°46'0 0.0
2019-Sep-16 09:29S 36°50' E 174°46'0 0.0
2019-Sep-16 08:56S 36°50' E 174°46'0 0.1
2019-Sep-16 08:29S 36°50' E 174°46'0 0.0
2019-Sep-16 07:59S 36°50' E 174°46'0 0.0
2019-Sep-16 07:29S 36°50' E 174°46'0 0.0
2019-Sep-16 06:59S 36°50' E 174°46'0 0.0
2019-Sep-16 06:29S 36°50' E 174°46'0 0.0
2019-Sep-16 05:59S 36°50' E 174°46'0 0.1
2019-Sep-16 05:29S 36°50' E 174°46'0 0.4
2019-Sep-16 04:59S 36°50' E 174°46'0 0.1
2019-Sep-16 04:31S 36°50' E 174°46'0 0.7
2019-Sep-16 03:51S 36°50' E 174°46'3 7.5
2019-Sep-16 03:30S 36°50' E 174°49'4 7.7
2019-Sep-16 03:00S 36°49' E 174°54'3 5.4
2019-Sep-16 02:30S 36°47' E 174°56'4 2.0
2019-Sep-16 00:40S 36°44' E 174°55'1 5.5
2019-Sep-16 00:29S 36°43' E 174°54'2 5.0
2019-Sep-16 00:00S 36°43' E 174°51'3 5.3
2019-Sep-15 23:30S 36°43' E 174°48'1 2.8
2019-Sep-15 22:59S 36°42' E 174°46'0 0.0
2019-Sep-15 22:29S 36°42' E 174°46'0 0.1
2019-Sep-15 22:00S 36°42' E 174°46'3 5.7
2019-Sep-15 21:31S 36°39' E 174°46'0 0.6
2019-Sep-15 20:58S 36°39' E 174°46'0 0.0
2019-Sep-15 20:28S 36°39' E 174°46'0 0.0
2019-Sep-15 19:34S 36°39' E 174°46'0 0.0
2019-Sep-15 19:28S 36°39' E 174°46'0 0.0
2019-Sep-15 18:58S 36°39' E 174°46'0 0.0
2019-Sep-15 18:28S 36°39' E 174°46'0 0.0
2019-Sep-15 17:34S 36°39' E 174°46'0 0.0
2019-Sep-15 17:28S 36°39' E 174°46'0 0.0
2019-Sep-15 16:34S 36°39' E 174°46'0 0.1
2019-Sep-15 16:28S 36°39' E 174°46'0 0.0
2019-Sep-15 15:28S 36°39' E 174°46'0 0.0
2019-Sep-15 14:46S 36°39' E 174°46'0 0.0
2019-Sep-15 14:28S 36°39' E 174°46'0 0.0
2019-Sep-15 13:28S 36°39' E 174°46'0 0.0
2019-Sep-15 12:58S 36°39' E 174°46'0 0.0
2019-Sep-15 12:10S 36°39' E 174°46'0 0.0
2019-Sep-15 11:58S 36°39' E 174°46'0 0.0
2019-Sep-15 11:22S 36°39' E 174°46'0 0.0
2019-Sep-15 10:52S 36°39' E 174°46'0 0.0
2019-Sep-15 10:28S 36°39' E 174°46'0 0.0
2019-Sep-15 09:58S 36°39' E 174°46'0 0.0
2019-Sep-15 09:28S 36°39' E 174°46'0 0.0
2019-Sep-15 08:58S 36°39' E 174°46'0 0.0
2019-Sep-15 08:28S 36°39' E 174°46'0 0.1
2019-Sep-15 07:58S 36°39' E 174°46'0 0.0
2019-Sep-15 07:28S 36°39' E 174°46'0 0.1
2019-Sep-15 06:46S 36°39' E 174°46'0 0.0
2019-Sep-15 06:28S 36°39' E 174°46'0 0.0
2019-Sep-15 05:58S 36°39' E 174°46'0 0.1
2019-Sep-15 05:19S 36°39' E 174°46'2 7.9
2019-Sep-15 05:00S 36°39' E 174°49'3 5.1
2019-Sep-15 04:30S 36°38' E 174°52'0 1.0
2019-Sep-15 04:00S 36°38' E 174°52'1 1.4
2019-Sep-15 03:31S 36°38' E 174°52'5 9.6
2019-Sep-15 03:00S 36°33' E 174°52'4 8.4
2019-Sep-15 02:30S 36°33' E 174°47'5 0.2
2019-Sep-14 03:28S 36°34' E 174°53'2 4.3
2019-Sep-14 03:00S 36°34' E 174°50'3 4.5
2019-Sep-14 02:22S 36°33' E 174°47'1 2.3
2019-Sep-14 01:59S 36°33' E 174°46'6 0.1
2019-Sep-12 05:44S 36°30' E 174°52'7 0.2
2019-Sep-10 14:54S 36°25' E 174°46'  
Track history (hours):
 
Tides and Currents Weather Stations Pressure Air Temp Water Temp Dewpoint Dewpoint Depression Visibility Wind Speed Wind Dir Waves Ship Positions

Spirit of New Zealand

Last reported at 2019-Sep-18 20:42 UTC. Time now 2019-Sep-21 05:15 UTC.
Position S 36°44' E 175°14'.

Length 37 m; draft 4.1 m.

Type: Passenger vessel. MMSI: 512201000.

Date/timePositionNaut miles runAvg speedWind from/ knotsBaromVisibWave heightAir tempDewpointWater temp
2019-Sep-18 20:42S 36°44' E 175°14'10 1.0
2019-Sep-18 10:36S 36°52' E 175°06'1 8.6
2019-Sep-18 10:30S 36°51' E 175°05'4 8.5
2019-Sep-18 09:59S 36°50' E 174°60'4 8.5
2019-Sep-18 09:30S 36°49' E 174°55'3 6.1
2019-Sep-18 09:00S 36°49' E 174°51'3 6.2
2019-Sep-18 08:30S 36°50' E 174°48'1 0.2
2019-Sep-17 23:56S 36°51' E 174°46'1 2.9
2019-Sep-17 23:30S 36°50' E 174°47'2 4.5
2019-Sep-17 23:00S 36°49' E 174°50'0 0.6
2019-Sep-17 22:11S 36°49' E 174°50'1 7.9
2019-Sep-17 22:00S 36°50' E 174°48'2 3.3
2019-Sep-17 21:22S 36°50' E 174°45'1 0.2
2019-Sep-17 18:55S 36°51' E 174°46'0 0.0
2019-Sep-17 18:16S 36°51' E 174°46'0 0.0
2019-Sep-17 17:58S 36°51' E 174°46'0 0.0
2019-Sep-17 12:04S 36°51' E 174°46'0 0.0
2019-Sep-17 11:40S 36°51' E 174°46'0 0.0
2019-Sep-17 11:04S 36°51' E 174°46'0 0.0
2019-Sep-17 10:55S 36°51' E 174°46'0 0.0
2019-Sep-17 10:28S 36°51' E 174°46'0 0.0
2019-Sep-16 23:54S 36°50' E 174°46'1 1.4
2019-Sep-16 23:30S 36°50' E 174°46'1 2.4
2019-Sep-16 23:00S 36°50' E 174°47'1 1.3
2019-Sep-16 22:30S 36°51' E 174°48'3 5.3
2019-Sep-16 22:00S 36°50' E 174°45'1 0.3
2019-Sep-16 18:52S 36°50' E 174°46'1 1.2
2019-Sep-16 18:22S 36°50' E 174°46'0 0.6
2019-Sep-16 17:59S 36°50' E 174°46'0 0.1
2019-Sep-16 17:29S 36°50' E 174°46'0 0.1
2019-Sep-16 16:59S 36°50' E 174°46'0 0.0
2019-Sep-16 16:29S 36°50' E 174°46'0 0.0
2019-Sep-16 15:59S 36°50' E 174°46'0 0.0
2019-Sep-16 15:29S 36°50' E 174°46'0 0.0
2019-Sep-16 14:50S 36°50' E 174°46'0 0.0
2019-Sep-16 14:29S 36°50' E 174°46'0 0.0
2019-Sep-16 13:59S 36°50' E 174°46'0 0.0
2019-Sep-16 13:20S 36°50' E 174°46'0 0.0
2019-Sep-16 12:56S 36°50' E 174°46'0 0.0
2019-Sep-16 12:20S 36°50' E 174°46'0 0.0
2019-Sep-16 11:56S 36°50' E 174°46'0 0.0
2019-Sep-16 11:26S 36°50' E 174°46'0 0.0
2019-Sep-16 10:59S 36°50' E 174°46'0 0.1
2019-Sep-16 10:29S 36°50' E 174°46'0 0.0
2019-Sep-16 09:59S 36°50' E 174°46'0 0.0
2019-Sep-16 09:29S 36°50' E 174°46'0 0.0
2019-Sep-16 08:56S 36°50' E 174°46'0 0.1
2019-Sep-16 08:29S 36°50' E 174°46'0 0.0
2019-Sep-16 07:59S 36°50' E 174°46'0 0.0
2019-Sep-16 07:29S 36°50' E 174°46'0 0.0
2019-Sep-16 06:59S 36°50' E 174°46'0 0.0
2019-Sep-16 06:29S 36°50' E 174°46'0 0.0
2019-Sep-16 05:59S 36°50' E 174°46'0 0.1
2019-Sep-16 05:29S 36°50' E 174°46'0 0.4
2019-Sep-16 04:59S 36°50' E 174°46'0 0.1
2019-Sep-16 04:31S 36°50' E 174°46'0 0.7
2019-Sep-16 03:51S 36°50' E 174°46'3 7.5
2019-Sep-16 03:30S 36°50' E 174°49'4 7.7
2019-Sep-16 03:00S 36°49' E 174°54'3 5.4
2019-Sep-16 02:30S 36°47' E 174°56'4 2.0
2019-Sep-16 00:40S 36°44' E 174°55'1 5.5
2019-Sep-16 00:29S 36°43' E 174°54'2 5.0
2019-Sep-16 00:00S 36°43' E 174°51'3 5.3
2019-Sep-15 23:30S 36°43' E 174°48'1 2.8
2019-Sep-15 22:59S 36°42' E 174°46'0 0.0
2019-Sep-15 22:29S 36°42' E 174°46'0 0.1
2019-Sep-15 22:00S 36°42' E 174°46'3 5.7
2019-Sep-15 21:31S 36°39' E 174°46'0 0.6
2019-Sep-15 20:58S 36°39' E 174°46'0 0.0
2019-Sep-15 20:28S 36°39' E 174°46'0 0.0
2019-Sep-15 19:34S 36°39' E 174°46'0 0.0
2019-Sep-15 19:28S 36°39' E 174°46'0 0.0
2019-Sep-15 18:58S 36°39' E 174°46'0 0.0
2019-Sep-15 18:28S 36°39' E 174°46'0 0.0
2019-Sep-15 17:34S 36°39' E 174°46'0 0.0
2019-Sep-15 17:28S 36°39' E 174°46'0 0.0
2019-Sep-15 16:34S 36°39' E 174°46'0 0.1
2019-Sep-15 16:28S 36°39' E 174°46'0 0.0
2019-Sep-15 15:28S 36°39' E 174°46'0 0.0
2019-Sep-15 14:46S 36°39' E 174°46'0 0.0
2019-Sep-15 14:28S 36°39' E 174°46'0 0.0
2019-Sep-15 13:28S 36°39' E 174°46'0 0.0
2019-Sep-15 12:58S 36°39' E 174°46'0 0.0
2019-Sep-15 12:10S 36°39' E 174°46'0 0.0
2019-Sep-15 11:58S 36°39' E 174°46'0 0.0
2019-Sep-15 11:22S 36°39' E 174°46'0 0.0
2019-Sep-15 10:52S 36°39' E 174°46'0 0.0
2019-Sep-15 10:28S 36°39' E 174°46'0 0.0
2019-Sep-15 09:58S 36°39' E 174°46'0 0.0
2019-Sep-15 09:28S 36°39' E 174°46'0 0.0
2019-Sep-15 08:58S 36°39' E 174°46'0 0.0
2019-Sep-15 08:28S 36°39' E 174°46'0 0.1
2019-Sep-15 07:58S 36°39' E 174°46'0 0.0
2019-Sep-15 07:28S 36°39' E 174°46'0 0.1
2019-Sep-15 06:46S 36°39' E 174°46'0 0.0
2019-Sep-15 06:28S 36°39' E 174°46'0 0.0
2019-Sep-15 05:58S 36°39' E 174°46'0 0.1
2019-Sep-15 05:19S 36°39' E 174°46'2 7.9
2019-Sep-15 05:00S 36°39' E 174°49'3 5.1
2019-Sep-15 04:30S 36°38' E 174°52'0 1.0
2019-Sep-15 04:00S 36°38' E 174°52'1 1.4
2019-Sep-15 03:31S 36°38' E 174°52'5 9.6
2019-Sep-15 03:00S 36°33' E 174°52'4 8.4
2019-Sep-15 02:30S 36°33' E 174°47'5 0.2
2019-Sep-14 03:28S 36°34' E 174°53'2 4.3
2019-Sep-14 03:00S 36°34' E 174°50'3 4.5
2019-Sep-14 02:22S 36°33' E 174°47'1 2.3
2019-Sep-14 01:59S 36°33' E 174°46'6 0.1
2019-Sep-12 05:44S 36°30' E 174°52'7 0.2
2019-Sep-10 14:54S 36°25' E 174°46'  

Dump ship's entire track history